Time;durP1;ratioP1;P1;durP2;ratioP2;P2;SDS_P1;SDS_P2;PMS_P1;PMS_P2;Temp;Humidity;BMP_temperature;BMP_pressure;BME280_temperature;BME280_humidity;BME280_pressure;Samples;Min_cycle;Max_cycle;Signal;HPM_P1;HPM_P2
2021/09/04 00:01:08;;;;;;;9.63;4.75;;;;;;;;;;5111483;28;20055;-69
2021/09/04 00:03:34;;;;;;;10.00;5.38;;;;;;;;;;5109185;28;20070;-67
2021/09/04 00:06:01;;;;;;;10.82;5.28;;;;;;;;;;5110985;28;20027;-69
2021/09/04 00:10:51;;;;;;;11.48;5.00;;;;;;;;;;5111131;27;20306;-67
2021/09/04 00:16:44;;;;;;;10.07;3.92;;;;;;;;;;5111706;27;20501;-67
2021/09/04 00:20:04;;;;;;;9.02;3.50;;;;;;;;;;5111438;27;20392;-69
2021/09/04 00:23:59;;;;;;;6.07;3.38;;;;;;;;;;5111785;27;20446;-67
2021/09/04 00:26:27;;;;;;;5.40;2.50;;;;;;;;;;5111288;28;20031;-67
2021/09/04 00:28:54;;;;;;;6.93;3.15;;;;;;;;;;5111424;28;20024;-67
2021/09/04 00:31:20;;;;;;;8.18;4.43;;;;;;;;;;5110804;28;20024;-70
2021/09/04 00:33:46;;;;;;;6.93;3.85;;;;;;;;;;5111146;28;20476;-69
2021/09/04 00:36:12;;;;;;;6.55;3.40;;;;;;;;;;5111159;28;20020;-71
2021/09/04 00:38:38;;;;;;;7.75;3.08;;;;;;;;;;5110730;28;20080;-71
2021/09/04 00:41:04;;;;;;;5.97;3.08;;;;;;;;;;5111029;28;20477;-69
2021/09/04 00:43:31;;;;;;;5.93;3.20;;;;;;;;;;5111259;28;20092;-69
2021/09/04 00:46:06;;;;;;;6.07;3.03;;;;;;;;;;5110900;28;20149;-68
2021/09/04 00:48:32;;;;;;;6.13;3.22;;;;;;;;;;5111018;28;20031;-68
2021/09/04 00:53:05;;;;;;;6.65;3.40;;;;;;;;;;5111273;27;20377;-67
2021/09/04 00:55:58;;;;;;;5.38;2.95;;;;;;;;;;5111558;27;20580;-68
2021/09/04 00:59:42;;;;;;;7.93;3.60;;;;;;;;;;5111005;27;20385;-67
2021/09/04 01:05:32;;;;;;;6.65;3.28;;;;;;;;;;5111479;27;20396;-68
2021/09/04 01:11:14;;;;;;;8.25;3.45;;;;;;;;;;5111586;27;20981;-69
2021/09/04 01:17:54;;;;;;;7.22;3.20;;;;;;;;;;5131787;27;20313;-67
2021/09/04 01:21:05;;;;;;;8.70;3.75;;;;;;;;;;5111303;27;20469;-67
2021/09/04 01:27:16;;;;;;;5.70;3.15;;;;;;;;;;5111760;27;20457;-67
2021/09/04 01:33:43;;;;;;;5.68;3.15;;;;;;;;;;5111954;27;20423;-67
2021/09/04 01:36:10;;;;;;;6.68;3.08;;;;;;;;;;5110841;28;20035;-68
2021/09/04 01:40:31;;;;;;;6.15;3.15;;;;;;;;;;5111821;27;20446;-68
2021/09/04 01:44:43;;;;;;;6.28;3.00;;;;;;;;;;5111410;27;20404;-67
2021/09/04 01:47:10;;;;;;;5.68;2.85;;;;;;;;;;5109922;28;20077;-67
2021/09/04 01:49:36;;;;;;;7.05;3.40;;;;;;;;;;5110856;28;20380;-67
2021/09/04 01:52:02;;;;;;;5.70;2.78;;;;;;;;;;5111299;28;20024;-69
2021/09/04 01:54:29;;;;;;;7.72;3.47;;;;;;;;;;5111488;28;20016;-69
2021/09/04 01:56:55;;;;;;;6.20;3.85;;;;;;;;;;5110780;28;20024;-67
2021/09/04 01:59:21;;;;;;;7.03;3.10;;;;;;;;;;5111229;28;20020;-67
2021/09/04 02:01:47;;;;;;;8.38;3.85;;;;;;;;;;5111039;28;20442;-67
2021/09/04 02:04:13;;;;;;;7.53;3.60;;;;;;;;;;5110641;28;20036;-67
2021/09/04 02:06:39;;;;;;;7.85;3.45;;;;;;;;;;5111287;28;20099;-67
2021/09/04 02:09:06;;;;;;;5.93;3.33;;;;;;;;;;5110889;28;20103;-67
2021/09/04 02:12:26;;;;;;;8.48;3.92;;;;;;;;;;5112099;27;20408;-67
2021/09/04 02:18:23;;;;;;;6.90;3.65;;;;;;;;;;5111068;27;20420;-67
2021/09/04 02:20:49;;;;;;;7.10;3.38;;;;;;;;;;5111204;28;20028;-67
2021/09/04 02:23:16;;;;;;;6.65;3.35;;;;;;;;;;5111373;28;20024;-66
2021/09/04 02:26:28;;;;;;;6.63;3.63;;;;;;;;;;5111582;27;20473;-67
2021/09/04 02:28:55;;;;;;;7.13;3.65;;;;;;;;;;5111447;28;20077;-67
2021/09/04 02:31:24;;;;;;;6.10;3.28;;;;;;;;;;5111238;28;20023;-67
2021/09/04 02:33:54;;;;;;;7.07;3.33;;;;;;;;;;5109943;28;20369;-67
2021/09/04 02:37:19;;;;;;;6.82;2.97;;;;;;;;;;5112134;27;20388;-67
2021/09/04 02:39:45;;;;;;;9.73;3.53;;;;;;;;;;5110980;28;20027;-67
2021/09/04 02:42:12;;;;;;;6.53;3.22;;;;;;;;;;5111251;28;20030;-69
2021/09/04 02:44:38;;;;;;;7.10;3.35;;;;;;;;;;5110821;28;20019;-67
2021/09/04 02:47:04;;;;;;;6.95;3.00;;;;;;;;;;5111396;28;20543;-67
2021/09/04 02:51:15;;;;;;;6.75;3.25;;;;;;;;;;5131856;27;20660;-69
2021/09/04 02:54:33;;;;;;;8.07;4.43;;;;;;;;;;5112157;27;20516;-67
2021/09/04 02:56:59;;;;;;;12.88;4.25;;;;;;;;;;5111554;28;20077;-68
2021/09/04 03:05:39;;;;;;;7.47;3.22;;;;;;;;;;5070750;28;20457;-67
2021/09/04 03:11:38;;;;;;;5.85;3.10;;;;;;;;;;5111524;27;20489;-67
2021/09/04 03:14:04;;;;;;;7.50;3.08;;;;;;;;;;5111156;28;20031;-67
2021/09/04 03:16:30;;;;;;;7.05;3.35;;;;;;;;;;5111205;28;20472;-69
2021/09/04 03:18:56;;;;;;;5.40;3.10;;;;;;;;;;5111244;28;20103;-67
2021/09/04 03:21:22;;;;;;;5.57;2.90;;;;;;;;;;5110721;28;20020;-67
2021/09/04 03:23:49;;;;;;;7.65;3.30;;;;;;;;;;5111138;28;20091;-68
2021/09/04 03:26:15;;;;;;;10.52;3.75;;;;;;;;;;5111324;28;20023;-68
2021/09/04 03:28:41;;;;;;;6.50;3.22;;;;;;;;;;5110688;28;20027;-68
2021/09/04 03:33:42;;;;;;;4.85;2.53;;;;;;;;;;5112116;27;20520;-68
2021/09/04 03:36:09;;;;;;;4.72;2.42;;;;;;;;;;5111077;28;20020;-68
2021/09/04 03:40:08;;;;;;;6.18;3.28;;;;;;;;;;5111884;27;20771;-67
2021/09/04 03:42:34;;;;;;;6.45;3.08;;;;;;;;;;5109645;28;20499;-67
2021/09/04 03:45:01;;;;;;;6.18;3.15;;;;;;;;;;5111221;28;20070;-67
2021/09/04 03:47:27;;;;;;;6.47;3.53;;;;;;;;;;5111478;28;20032;-67
2021/09/04 03:49:53;;;;;;;7.38;3.40;;;;;;;;;;5110729;28;20031;-67
2021/09/04 03:52:20;;;;;;;6.93;3.60;;;;;;;;;;5111286;28;20162;-68
2021/09/04 03:54:46;;;;;;;6.05;3.50;;;;;;;;;;5109812;28;20081;-68
2021/09/04 03:57:12;;;;;;;6.35;3.13;;;;;;;;;;5110687;28;20027;-68
2021/09/04 03:59:38;;;;;;;6.22;2.85;;;;;;;;;;5110947;28;20080;-68
2021/09/04 04:02:45;;;;;;;6.20;3.33;;;;;;;;;;5111165;27;20908;-69
2021/09/04 04:10:50;;;;;;;7.57;3.28;;;;;;;;;;5111178;27;20393;-68
2021/09/04 04:13:17;;;;;;;6.00;3.47;;;;;;;;;;5111361;28;20031;-71
2021/09/04 04:16:40;;;;;;;5.75;3.15;;;;;;;;;;5111155;27;20396;-69
2021/09/04 04:20:23;;;;;;;8.35;3.10;;;;;;;;;;5111644;27;20908;-70
2021/09/04 04:22:49;;;;;;;6.97;3.60;;;;;;;;;;5111621;28;20112;-67
2021/09/04 04:25:15;;;;;;;7.97;4.00;;;;;;;;;;5109526;28;20063;-67
2021/09/04 04:30:28;;;;;;;18.33;7.28;;;;;;;;;;5070439;28;20411;-68
2021/09/04 04:32:54;;;;;;;23.05;10.38;;;;;;;;;;5070820;28;20051;-68
2021/09/04 04:39:41;;;;;;;28.60;12.70;;;;;;;;;;5071548;28;20407;-69
2021/09/04 04:43:34;;;;;;;19.90;10.50;;;;;;;;;;5111968;27;20422;-67
2021/09/04 04:46:00;;;;;;;17.58;6.95;;;;;;;;;;5110996;28;20038;-69
2021/09/04 04:49:00;;;;;;;10.70;5.47;;;;;;;;;;5112159;27;20396;-67
2021/09/04 04:51:27;;;;;;;11.52;4.28;;;;;;;;;;5110874;28;20093;-68
2021/09/04 04:53:53;;;;;;;6.97;3.70;;;;;;;;;;5111225;28;20027;-68
2021/09/04 04:56:19;;;;;;;7.88;3.92;;;;;;;;;;5111313;28;20047;-69
2021/09/04 05:00:09;;;;;;;7.93;3.63;;;;;;;;;;5111078;27;20453;-69
2021/09/04 05:02:35;;;;;;;7.53;3.20;;;;;;;;;;5111269;28;20484;-68
2021/09/04 05:05:01;;;;;;;8.13;3.67;;;;;;;;;;5111192;28;20103;-68
2021/09/04 05:09:13;;;;;;;10.30;3.90;;;;;;;;;;5111371;27;20935;-67
2021/09/04 05:13:46;;;;;;;11.68;3.65;;;;;;;;;;5111144;27;20462;-68
2021/09/04 05:19:46;;;;;;;13.02;5.47;;;;;;;;;;5111463;27;20389;-69
2021/09/04 05:22:12;;;;;;;11.93;6.80;;;;;;;;;;5111567;28;20016;-67
2021/09/04 05:25:57;;;;;;;8.98;4.18;;;;;;;;;;5111920;27;20397;-67
2021/09/04 05:28:24;;;;;;;7.88;4.03;;;;;;;;;;5110832;28;20031;-68
2021/09/04 05:32:23;;;;;;;6.80;3.90;;;;;;;;;;5111808;27;20408;-67
2021/09/04 05:34:50;;;;;;;8.98;4.78;;;;;;;;;;5110912;28;20024;-69
2021/09/04 05:41:21;;;;;;;6.97;3.75;;;;;;;;;;5070579;28;20484;-69
2021/09/04 05:43:47;;;;;;;8.57;4.68;;;;;;;;;;5070771;28;20033;-68
2021/09/04 05:46:31;;;;;;;12.20;4.30;;;;;;;;;;5071260;28;20403;-70
2021/09/04 05:49:20;;;;;;;9.15;4.40;;;;;;;;;;5111089;27;20388;-69
2021/09/04 05:51:46;;;;;;;8.50;3.45;;;;;;;;;;5110044;28;20023;-68
2021/09/04 05:57:43;;;;;;;10.70;6.38;;;;;;;;;;5111392;27;20514;-69
2021/09/04 06:00:09;;;;;;;11.15;5.40;;;;;;;;;;5111320;28;20027;-67
2021/09/04 06:02:35;;;;;;;7.82;4.60;;;;;;;;;;5111023;28;20472;-69
2021/09/04 06:05:01;;;;;;;9.25;3.65;;;;;;;;;;5111188;28;20031;-69
2021/09/04 06:07:28;;;;;;;8.63;4.70;;;;;;;;;;5111216;28;20504;-69
2021/09/04 06:09:54;;;;;;;10.35;4.68;;;;;;;;;;5110659;28;20098;-69
2021/09/04 06:12:20;;;;;;;10.07;4.47;;;;;;;;;;5111063;28;20020;-69
2021/09/04 06:15:07;;;;;;;7.60;3.47;;;;;;;;;;5111486;27;20384;-69
2021/09/04 06:17:33;;;;;;;7.78;4.22;;;;;;;;;;5109698;28;20027;-69
2021/09/04 06:19:59;;;;;;;7.13;3.58;;;;;;;;;;5111336;28;20028;-69
2021/09/04 06:22:26;;;;;;;7.68;3.60;;;;;;;;;;5111225;28;20020;-69
2021/09/04 06:24:53;;;;;;;8.73;4.40;;;;;;;;;;5110875;28;20027;-69
2021/09/04 06:29:26;;;;;;;16.77;7.68;;;;;;;;;;5173725;27;20322;-69
2021/09/04 06:31:53;;;;;;;15.65;7.60;;;;;;;;;;5152060;27;20030;-68
2021/09/04 06:35:46;;;;;;;14.20;6.50;;;;;;;;;;5111690;27;20500;-69
2021/09/04 06:38:13;;;;;;;10.80;5.45;;;;;;;;;;5110890;28;20035;-69
2021/09/04 06:40:40;;;;;;;13.13;6.35;;;;;;;;;;5111253;28;20099;-68
2021/09/04 06:43:06;;;;;;;17.38;6.38;;;;;;;;;;5110020;28;20074;-68
2021/09/04 06:45:32;;;;;;;13.35;6.68;;;;;;;;;;5110879;28;20055;-68
2021/09/04 06:47:58;;;;;;;18.63;7.63;;;;;;;;;;5111208;28;20065;-68
2021/09/04 06:50:25;;;;;;;13.02;5.97;;;;;;;;;;5109860;28;20048;-68
2021/09/04 06:53:15;;;;;;;13.30;6.57;;;;;;;;;;5112007;27;20508;-69
2021/09/04 06:55:41;;;;;;;11.73;6.40;;;;;;;;;;5111569;28;20028;-69
2021/09/04 06:58:07;;;;;;;15.05;8.02;;;;;;;;;;5110865;28;20020;-70
2021/09/04 07:01:02;;;;;;;14.25;6.90;;;;;;;;;;5112208;27;20384;-69
2021/09/04 07:03:28;;;;;;;13.45;6.45;;;;;;;;;;5111269;28;20098;-69
2021/09/04 07:06:40;;;;;;;13.30;6.35;;;;;;;;;;5111053;27;20826;-70
2021/09/04 07:09:06;;;;;;;12.32;5.90;;;;;;;;;;5111279;28;20027;-68
2021/09/04 07:11:32;;;;;;;11.45;5.72;;;;;;;;;;5111173;28;20027;-69
2021/09/04 07:15:12;;;;;;;15.18;7.03;;;;;;;;;;5111525;27;20380;-68
2021/09/04 07:17:38;;;;;;;14.05;5.88;;;;;;;;;;5111268;28;20024;-69
2021/09/04 07:20:05;;;;;;;13.48;5.70;;;;;;;;;;5109539;28;20059;-69
2021/09/04 07:22:31;;;;;;;10.15;5.03;;;;;;;;;;5111246;28;20026;-69
2021/09/04 07:24:57;;;;;;;8.57;4.15;;;;;;;;;;5111141;28;20024;-69
2021/09/04 07:27:23;;;;;;;9.65;5.25;;;;;;;;;;5110841;28;20027;-69
2021/09/04 07:29:50;;;;;;;11.98;4.82;;;;;;;;;;5111196;28;20082;-69
2021/09/04 07:32:16;;;;;;;7.95;3.97;;;;;;;;;;5111036;28;20027;-69
2021/09/04 07:34:42;;;;;;;11.07;4.75;;;;;;;;;;5109250;28;20463;-69
2021/09/04 07:37:08;;;;;;;9.55;4.95;;;;;;;;;;5110971;28;20031;-69
2021/09/04 07:39:48;;;;;;;8.48;3.83;;;;;;;;;;5111382;27;20389;-70
2021/09/04 07:42:14;;;;;;;8.68;4.38;;;;;;;;;;5109548;28;20028;-69
2021/09/04 07:47:42;;;;;;;9.25;4.22;;;;;;;;;;5070899;28;20895;-70
2021/09/04 07:51:56;;;;;;;7.70;3.33;;;;;;;;;;5111286;27;20397;-68
2021/09/04 07:54:22;;;;;;;11.10;3.83;;;;;;;;;;5111140;28;20024;-69
2021/09/04 07:56:48;;;;;;;10.73;4.28;;;;;;;;;;5111195;28;20043;-69
2021/09/04 07:59:14;;;;;;;7.47;3.55;;;;;;;;;;5111168;28;20028;-69
2021/09/04 08:01:40;;;;;;;9.20;3.17;;;;;;;;;;5110709;28;20024;-69
2021/09/04 08:04:06;;;;;;;5.25;3.00;;;;;;;;;;5111117;28;20495;-70
2021/09/04 08:08:32;;;;;;;5.95;3.28;;;;;;;;;;5111548;27;20780;-69
2021/09/04 08:10:58;;;;;;;7.60;3.33;;;;;;;;;;5111390;28;20103;-70
2021/09/04 08:13:24;;;;;;;10.13;4.40;;;;;;;;;;5111458;28;20119;-70
2021/09/04 08:15:51;;;;;;;8.88;3.70;;;;;;;;;;5110891;28;20024;-70
2021/09/04 08:18:18;;;;;;;6.07;3.47;;;;;;;;;;5109872;28;20391;-70
2021/09/04 08:20:44;;;;;;;6.15;3.33;;;;;;;;;;5111117;28;20024;-69
2021/09/04 08:23:11;;;;;;;12.82;4.03;;;;;;;;;;5110831;28;20020;-70
2021/09/04 08:26:18;;;;;;;7.55;3.45;;;;;;;;;;5071399;28;20403;-70
2021/09/04 08:28:44;;;;;;;6.30;3.08;;;;;;;;;;5071269;28;20437;-69
2021/09/04 08:31:10;;;;;;;7.97;2.88;;;;;;;;;;5070188;28;20473;-69
2021/09/04 08:33:37;;;;;;;7.60;3.58;;;;;;;;;;5070535;28;20085;-70
2021/09/04 08:36:03;;;;;;;6.75;3.42;;;;;;;;;;5070548;28;20024;-69
2021/09/04 08:38:29;;;;;;;7.38;3.22;;;;;;;;;;5070074;28;20024;-69
2021/09/04 08:42:49;;;;;;;9.10;3.53;;;;;;;;;;5111457;27;20409;-69
2021/09/04 08:45:15;;;;;;;7.70;3.05;;;;;;;;;;5111038;28;20047;-70
2021/09/04 08:47:42;;;;;;;8.50;3.17;;;;;;;;;;5127094;28;20028;-69
2021/09/04 08:50:09;;;;;;;6.55;3.10;;;;;;;;;;5111033;28;20040;-69
2021/09/04 08:52:35;;;;;;;4.97;3.00;;;;;;;;;;5110608;28;20028;-69
2021/09/04 08:55:01;;;;;;;5.13;3.10;;;;;;;;;;5111047;28;20028;-70
2021/09/04 08:57:28;;;;;;;5.47;2.75;;;;;;;;;;5110555;28;20389;-69
2021/09/04 08:59:54;;;;;;;7.85;3.63;;;;;;;;;;5126772;28;20031;-70
2021/09/04 09:02:26;;;;;;;8.40;3.30;;;;;;;;;;5111249;28;20036;-69
2021/09/04 09:05:00;;;;;;;4.80;2.85;;;;;;;;;;5110742;28;20039;-70
2021/09/04 09:07:39;;;;;;;6.07;3.55;;;;;;;;;;5111113;28;20054;-69
2021/09/04 09:10:07;;;;;;;7.25;3.22;;;;;;;;;;5110786;28;20046;-69
2021/09/04 09:12:34;;;;;;;5.70;3.15;;;;;;;;;;5110392;28;20016;-69
2021/09/04 09:15:00;;;;;;;5.47;2.95;;;;;;;;;;5110879;28;20043;-70
2021/09/04 09:17:26;;;;;;;4.82;2.90;;;;;;;;;;5110934;28;20024;-70
2021/09/04 09:20:03;;;;;;;6.43;3.30;;;;;;;;;;5110284;28;20099;-71
2021/09/04 09:22:41;;;;;;;5.68;3.15;;;;;;;;;;5110566;28;20031;-68
2021/09/04 09:25:16;;;;;;;6.22;3.35;;;;;;;;;;5110595;28;20020;-69
2021/09/04 09:27:58;;;;;;;8.10;3.38;;;;;;;;;;5110172;28;20023;-70
2021/09/04 09:30:37;;;;;;;7.40;2.95;;;;;;;;;;5110615;28;20414;-70
2021/09/04 09:33:04;;;;;;;5.18;3.08;;;;;;;;;;5110158;28;20027;-70
2021/09/04 09:35:31;;;;;;;7.50;3.28;;;;;;;;;;5110300;28;20097;-69
2021/09/04 09:37:58;;;;;;;7.63;3.55;;;;;;;;;;5110257;28;20032;-70
2021/09/04 09:40:24;;;;;;;6.50;2.80;;;;;;;;;;5109583;28;20027;-69
2021/09/04 09:42:51;;;;;;;4.88;3.20;;;;;;;;;;5125909;28;20027;-70
2021/09/04 09:45:17;;;;;;;5.75;2.90;;;;;;;;;;5110448;28;20046;-70
2021/09/04 09:47:50;;;;;;;6.55;3.17;;;;;;;;;;5125480;28;20033;-70
2021/09/04 09:50:17;;;;;;;7.53;3.40;;;;;;;;;;5109990;28;20024;-70
2021/09/04 09:52:45;;;;;;;5.95;2.90;;;;;;;;;;5104462;28;20388;-70
2021/09/04 09:55:11;;;;;;;5.40;2.95;;;;;;;;;;5111625;28;20032;-70
2021/09/04 09:57:38;;;;;;;6.13;3.45;;;;;;;;;;5096233;28;20039;-70
2021/09/04 10:00:05;;;;;;;7.32;2.67;;;;;;;;;;5096182;28;20028;-69
2021/09/04 10:04:58;;;;;;;5.97;3.17;;;;;;;;;;5132533;27;20119;-70
2021/09/04 10:07:25;;;;;;;5.53;3.13;;;;;;;;;;5113353;28;20027;-70
2021/09/04 10:09:51;;;;;;;4.78;2.47;;;;;;;;;;5131281;28;20098;-69
2021/09/04 10:12:17;;;;;;;5.78;2.90;;;;;;;;;;5131694;28;20028;-70
2021/09/04 10:14:45;;;;;;;5.43;2.85;;;;;;;;;;5131421;28;20035;-69
2021/09/04 10:17:12;;;;;;;5.78;3.22;;;;;;;;;;5131849;28;20030;-69
2021/09/04 10:19:39;;;;;;;5.55;2.97;;;;;;;;;;5131899;28;20332;-69
2021/09/04 10:22:10;;;;;;;6.53;3.75;;;;;;;;;;5131164;28;20026;-69
2021/09/04 10:24:54;;;;;;;5.53;2.88;;;;;;;;;;5131363;28;20031;-70
2021/09/04 10:27:32;;;;;;;7.18;3.20;;;;;;;;;;5131404;28;20035;-69
2021/09/04 10:29:58;;;;;;;5.03;2.60;;;;;;;;;;5112548;28;20024;-70
2021/09/04 10:32:25;;;;;;;6.18;3.08;;;;;;;;;;5131290;28;20127;-69
2021/09/04 10:35:05;;;;;;;7.65;2.88;;;;;;;;;;5131532;28;20047;-70
2021/09/04 10:37:31;;;;;;;7.75;3.08;;;;;;;;;;5130847;28;20023;-70
2021/09/04 10:40:07;;;;;;;6.20;3.15;;;;;;;;;;5131201;28;20023;-70
2021/09/04 10:42:37;;;;;;;7.00;3.20;;;;;;;;;;5112648;28;20019;-70
2021/09/04 10:45:08;;;;;;;6.78;2.78;;;;;;;;;;5130676;28;20023;-70
2021/09/04 10:47:47;;;;;;;5.88;3.45;;;;;;;;;;5130906;28;20020;-69
2021/09/04 10:50:33;;;;;;;9.32;3.53;;;;;;;;;;5112174;28;20031;-69
2021/09/04 10:53:05;;;;;;;5.72;3.20;;;;;;;;;;5131523;28;20027;-69
2021/09/04 10:55:33;;;;;;;6.27;3.07;;;;;;;;;;5130819;28;20476;-70
2021/09/04 10:58:08;;;;;;;6.22;2.42;;;;;;;;;;5130382;28;20260;-70
2021/09/04 11:00:40;;;;;;;5.60;2.78;;;;;;;;;;5130744;28;20027;-71
2021/09/04 11:03:06;;;;;;;;;;;;;;;;;;5130869;28;20052;-70
2021/09/04 11:05:39;;;;;;;6.07;2.90;;;;;;;;;;5130486;28;19911;-70
2021/09/04 11:08:04;;;;;;;;;;;;;;;;;;5131141;28;20026;-70
2021/09/04 11:10:32;;;;;;;5.93;3.05;;;;;;;;;;5112160;28;19903;-69
2021/09/04 11:13:27;;;;;;;7.47;2.83;;;;;;;;;;5111809;28;20425;-70
2021/09/04 11:15:53;;;;;;;5.60;3.40;;;;;;;;;;5119053;28;20022;-70
2021/09/04 11:18:20;;;;;;;5.63;3.00;;;;;;;;;;5116341;28;20102;-70
2021/09/04 11:20:47;;;;;;;5.50;2.90;;;;;;;;;;5116845;28;20041;-70
2021/09/04 11:23:22;;;;;;;6.10;2.97;;;;;;;;;;5116572;28;20096;-69
2021/09/04 11:25:48;;;;;;;7.22;3.15;;;;;;;;;;5116707;28;20030;-70
2021/09/04 11:28:15;;;;;;;5.25;2.90;;;;;;;;;;5116503;28;20477;-70
2021/09/04 11:30:49;;;;;;;6.18;2.92;;;;;;;;;;5116535;28;20107;-70
2021/09/04 11:33:16;;;;;;;5.75;3.15;;;;;;;;;;5115980;28;20099;-70
2021/09/04 11:35:45;;;;;;;5.97;3.13;;;;;;;;;;5116390;28;20100;-71
2021/09/04 11:38:12;;;;;;;5.85;2.85;;;;;;;;;;5116374;28;20031;-72
2021/09/04 11:40:38;;;;;;;8.38;2.92;;;;;;;;;;5115913;28;20484;-70
2021/09/04 11:43:07;;;;;;;13.48;11.02;;;;;;;;;;5116326;28;20512;-70
2021/09/04 11:45:34;;;;;;;6.07;3.30;;;;;;;;;;5116353;28;20027;-69
2021/09/04 11:48:07;;;;;;;5.57;3.08;;;;;;;;;;5115870;28;20099;-70
2021/09/04 11:50:33;;;;;;;5.43;3.17;;;;;;;;;;5116135;28;20357;-71
2021/09/04 11:53:00;;;;;;;4.40;2.50;;;;;;;;;;5116120;28;20024;-69
2021/09/04 11:55:28;;;;;;;4.88;2.70;;;;;;;;;;5115607;28;20375;-70
2021/09/04 11:57:56;;;;;;;6.10;3.10;;;;;;;;;;5116093;28;20083;-70
2021/09/04 12:00:23;;;;;;;7.03;4.03;;;;;;;;;;5115496;28;20463;-70
2021/09/04 12:02:54;;;;;;;6.60;3.53;;;;;;;;;;5115641;28;20039;-70
2021/09/04 12:05:22;;;;;;;6.67;3.63;;;;;;;;;;5097649;28;20019;-70
2021/09/04 12:07:49;;;;;;;6.60;4.20;;;;;;;;;;5115517;28;20055;-69
2021/09/04 12:10:17;;;;;;;7.75;3.70;;;;;;;;;;5115848;28;20019;-69
2021/09/04 12:12:44;;;;;;;6.30;3.40;;;;;;;;;;5115684;28;20030;-69
2021/09/04 12:15:11;;;;;;;7.03;3.13;;;;;;;;;;5115263;28;20100;-69
2021/09/04 12:17:48;;;;;;;5.15;2.50;;;;;;;;;;5115827;28;20028;-69
2021/09/04 12:20:14;;;;;;;7.80;2.88;;;;;;;;;;5115556;28;20460;-69
2021/09/04 12:22:40;;;;;;;4.95;2.70;;;;;;;;;;5115013;28;20031;-69
2021/09/04 12:25:26;;;;;;;4.68;2.70;;;;;;;;;;5115527;28;20043;-70
2021/09/04 12:27:58;;;;;;;5.55;2.75;;;;;;;;;;5114420;28;20023;-70
2021/09/04 12:30:24;;;;;;;;;;;;;;;;;;5115490;28;20027;-70
2021/09/04 12:33:01;;;;;;;4.38;2.58;;;;;;;;;;5115346;28;19903;-71
2021/09/04 12:35:46;;;;;;;6.65;2.88;;;;;;;;;;5115153;28;20474;-71
2021/09/04 12:38:15;;;;;;;4.25;2.53;;;;;;;;;;5115594;28;20050;-70
2021/09/04 12:40:57;;;;;;;4.32;2.55;;;;;;;;;;5115279;28;20077;-70
2021/09/04 12:43:23;;;;;;;5.50;3.30;;;;;;;;;;5114926;28;20080;-71
2021/09/04 12:45:59;;;;;;;7.75;3.47;;;;;;;;;;5115202;28;20539;-69
2021/09/04 12:48:32;;;;;;;6.70;3.17;;;;;;;;;;5115348;28;20059;-71
2021/09/04 12:51:14;;;;;;;7.18;2.75;;;;;;;;;;5114612;28;20023;-71
2021/09/04 12:53:40;;;;;;;6.43;3.43;;;;;;;;;;5115255;28;20024;-70
2021/09/04 12:56:06;;;;;;;5.72;2.80;;;;;;;;;;5114801;28;20762;-72
2021/09/04 12:58:32;;;;;;;4.60;2.28;;;;;;;;;;5114426;28;20092;-70
2021/09/04 13:01:08;;;;;;;5.25;2.80;;;;;;;;;;5114731;28;20023;-71
2021/09/04 13:03:34;;;;;;;5.35;2.80;;;;;;;;;;5114074;28;20040;-70
2021/09/04 13:06:01;;;;;;;4.13;2.70;;;;;;;;;;5114661;28;20028;-70
2021/09/04 13:08:27;;;;;;;6.25;3.15;;;;;;;;;;5114903;28;20015;-71
2021/09/04 13:10:53;;;;;;;7.45;3.05;;;;;;;;;;5114198;28;20019;-69
2021/09/04 13:13:19;;;;;;;6.82;3.03;;;;;;;;;;5114522;28;20028;-71
2021/09/04 13:15:46;;;;;;;6.43;3.10;;;;;;;;;;5114672;28;20028;-72
2021/09/04 13:18:12;;;;;;;6.13;3.20;;;;;;;;;;5114060;28;20023;-69
2021/09/04 13:20:38;;;;;;;6.90;3.03;;;;;;;;;;5114410;28;20058;-71
2021/09/04 13:23:04;;;;;;;7.22;2.80;;;;;;;;;;5114276;28;20495;-70
2021/09/04 13:25:31;;;;;;;4.15;2.63;;;;;;;;;;5113842;28;20028;-70
2021/09/04 13:27:57;;;;;;;7.90;4.00;;;;;;;;;;5114418;28;20026;-71
2021/09/04 13:30:23;;;;;;;6.50;3.05;;;;;;;;;;5114253;28;20028;-70
2021/09/04 13:32:49;;;;;;;5.85;2.78;;;;;;;;;;5114094;28;20445;-71
2021/09/04 13:35:15;;;;;;;4.82;2.75;;;;;;;;;;5114240;28;20035;-71
2021/09/04 13:37:42;;;;;;;6.50;3.22;;;;;;;;;;5113805;28;20090;-70
2021/09/04 13:40:08;;;;;;;6.70;2.90;;;;;;;;;;5113746;28;20070;-69
2021/09/04 13:42:34;;;;;;;5.13;2.88;;;;;;;;;;5114080;28;20020;-69
2021/09/04 13:45:00;;;;;;;6.15;3.58;;;;;;;;;;5113967;28;20391;-69
2021/09/04 13:47:26;;;;;;;5.65;3.45;;;;;;;;;;5113755;28;20051;-69
2021/09/04 13:49:53;;;;;;;5.75;3.00;;;;;;;;;;5113966;28;20035;-69
2021/09/04 13:52:19;;;;;;;6.55;3.08;;;;;;;;;;5113919;28;20024;-68
2021/09/04 13:54:45;;;;;;;5.45;2.53;;;;;;;;;;5113462;28;20042;-69
2021/09/04 13:57:11;;;;;;;4.85;2.60;;;;;;;;;;5114114;28;20345;-69
2021/09/04 13:59:37;;;;;;;4.18;2.70;;;;;;;;;;5113966;28;20059;-69
2021/09/04 14:02:04;;;;;;;5.65;2.92;;;;;;;;;;5113853;28;20027;-70
2021/09/04 14:04:30;;;;;;;8.05;2.88;;;;;;;;;;5095353;28;20116;-69
2021/09/04 14:06:57;;;;;;;4.22;2.60;;;;;;;;;;5113379;28;20472;-69
2021/09/04 14:09:23;;;;;;;5.60;2.35;;;;;;;;;;5113766;28;20024;-69
2021/09/04 14:11:49;;;;;;;5.32;2.95;;;;;;;;;;5113718;28;20051;-69
2021/09/04 14:14:15;;;;;;;8.98;2.70;;;;;;;;;;5113336;28;20027;-69
2021/09/04 14:16:42;;;;;;;5.28;2.70;;;;;;;;;;5113950;28;20047;-69
2021/09/04 14:19:08;;;;;;;6.13;2.83;;;;;;;;;;5113734;28;20182;-70
2021/09/04 14:21:34;;;;;;;4.45;2.65;;;;;;;;;;5113302;28;20507;-71
2021/09/04 14:24:00;;;;;;;7.35;2.60;;;;;;;;;;5113610;28;20036;-70
2021/09/04 14:26:26;;;;;;;4.70;2.80;;;;;;;;;;5095510;28;20099;-69
2021/09/04 14:28:53;;;;;;;3.50;2.10;;;;;;;;;;5113224;28;20412;-70
2021/09/04 14:31:19;;;;;;;5.32;3.08;;;;;;;;;;5113848;28;20020;-69
2021/09/04 14:33:45;;;;;;;5.10;2.53;;;;;;;;;;5095354;28;20028;-72
2021/09/04 14:36:11;;;;;;;5.03;2.53;;;;;;;;;;5094895;28;20024;-70
2021/09/04 14:38:37;;;;;;;4.53;2.30;;;;;;;;;;5113597;28;20027;-70
2021/09/04 14:41:03;;;;;;;4.15;2.60;;;;;;;;;;5113545;28;20421;-71
2021/09/04 14:43:29;;;;;;;5.35;2.33;;;;;;;;;;5113135;28;20038;-70
2021/09/04 14:45:56;;;;;;;4.47;2.33;;;;;;;;;;5113518;28;20091;-71
2021/09/04 14:48:22;;;;;;;5.32;2.40;;;;;;;;;;5113437;28;20035;-71
2021/09/04 14:50:48;;;;;;;3.55;2.30;;;;;;;;;;5115399;28;20027;-71
2021/09/04 14:53:14;;;;;;;4.35;2.55;;;;;;;;;;5117317;28;20094;-69
2021/09/04 14:55:41;;;;;;;8.45;3.30;;;;;;;;;;5117264;28;20024;-71
2021/09/04 14:58:07;;;;;;;5.93;2.75;;;;;;;;;;5098824;28;20028;-70
2021/09/04 15:00:33;;;;;;;5.43;2.63;;;;;;;;;;5098806;28;20024;-74
2021/09/04 15:02:59;;;;;;;8.15;3.05;;;;;;;;;;5095114;28;20055;-71
2021/09/04 15:05:25;;;;;;;5.18;2.67;;;;;;;;;;5096340;28;20024;-69
2021/09/04 15:07:51;;;;;;;6.10;2.60;;;;;;;;;;5096465;28;20422;-69
2021/09/04 15:10:18;;;;;;;4.43;2.30;;;;;;;;;;5094778;28;20031;-69
2021/09/04 15:12:44;;;;;;;10.68;3.05;;;;;;;;;;5096710;28;20095;-70
2021/09/04 15:15:10;;;;;;;3.47;2.08;;;;;;;;;;5095403;28;20357;-70
2021/09/04 15:17:37;;;;;;;4.60;2.33;;;;;;;;;;5096015;28;20077;-70
2021/09/04 15:20:03;;;;;;;5.93;2.75;;;;;;;;;;5096336;28;20091;-70
2021/09/04 15:22:30;;;;;;;4.43;2.83;;;;;;;;;;5096375;28;20012;-68
2021/09/04 15:24:56;;;;;;;4.85;2.65;;;;;;;;;;5095869;28;20464;-69
2021/09/04 15:27:22;;;;;;;4.55;2.85;;;;;;;;;;5096463;28;20031;-69
2021/09/04 15:29:48;;;;;;;6.20;2.63;;;;;;;;;;5094920;28;20038;-69
2021/09/04 15:32:15;;;;;;;4.90;2.67;;;;;;;;;;5095728;28;20047;-72
2021/09/04 15:34:41;;;;;;;6.22;2.80;;;;;;;;;;5096097;28;20085;-70
2021/09/04 15:37:07;;;;;;;3.28;2.30;;;;;;;;;;5096043;28;20381;-70
2021/09/04 15:39:33;;;;;;;4.32;2.30;;;;;;;;;;5095723;28;20031;-70
2021/09/04 15:41:59;;;;;;;4.60;2.55;;;;;;;;;;5096219;28;20028;-71
2021/09/04 15:44:25;;;;;;;5.32;2.38;;;;;;;;;;5095797;28;20111;-69
2021/09/04 15:46:52;;;;;;;4.65;2.50;;;;;;;;;;5095252;28;20073;-70
2021/09/04 15:49:18;;;;;;;3.83;2.42;;;;;;;;;;5095961;28;20039;-70
2021/09/04 15:51:44;;;;;;;8.35;2.30;;;;;;;;;;5095729;28;20047;-70
2021/09/04 15:54:10;;;;;;;5.68;2.58;;;;;;;;;;5095294;28;20032;-70
2021/09/04 15:56:36;;;;;;;4.55;2.35;;;;;;;;;;5095505;28;20070;-69
2021/09/04 15:59:03;;;;;;;4.18;2.40;;;;;;;;;;5095606;28;20080;-69
2021/09/04 16:01:29;;;;;;;5.78;2.80;;;;;;;;;;5094937;28;20460;-69
2021/09/04 16:03:55;;;;;;;5.25;2.65;;;;;;;;;;5107044;28;20093;-69
2021/09/04 16:06:21;;;;;;;4.07;2.45;;;;;;;;;;5116358;28;20019;-69
2021/09/04 16:08:47;;;;;;;6.78;3.28;;;;;;;;;;5115391;28;20032;-69
2021/09/04 16:11:13;;;;;;;5.18;2.75;;;;;;;;;;5115712;28;20026;-69
2021/09/04 16:13:40;;;;;;;6.78;3.13;;;;;;;;;;5115324;28;20484;-69
2021/09/04 16:16:06;;;;;;;6.55;3.00;;;;;;;;;;5115941;28;20388;-69
2021/09/04 16:18:32;;;;;;;7.72;3.88;;;;;;;;;;5097253;28;20028;-69
2021/09/04 16:20:58;;;;;;;5.00;2.90;;;;;;;;;;5115247;28;20100;-69
2021/09/04 16:23:25;;;;;;;8.02;3.33;;;;;;;;;;5115340;28;20076;-69
2021/09/04 16:25:51;;;;;;;6.40;2.95;;;;;;;;;;5115302;28;20051;-69
2021/09/04 16:28:17;;;;;;;9.30;3.92;;;;;;;;;;5096656;28;20023;-69
2021/09/04 16:30:43;;;;;;;6.78;3.30;;;;;;;;;;5115237;28;20051;-69
2021/09/04 16:33:09;;;;;;;8.45;3.45;;;;;;;;;;5115499;28;20084;-69
2021/09/04 16:35:35;;;;;;;6.55;2.65;;;;;;;;;;5115281;28;20030;-69